Time;durP1;ratioP1;P1;durP2;ratioP2;P2;SDS_P1;SDS_P2;PMS_P1;PMS_P2;Temp;Humidity;BMP_temperature;BMP_pressure;BME280_temperature;BME280_humidity;BME280_pressure;Samples;Min_cycle;Max_cycle;Signal;HPM_P1;HPM_P2
2023/11/13 00:00:34;;;;;;;13.73;8.50;;;;;;;5.88;100.00;97602.63;5037146;28;20232;-82
2023/11/13 00:03:01;;;;;;;11.67;7.83;;;;;;;5.89;100.00;97606.94;5037193;28;20227;-81
2023/11/13 00:05:27;;;;;;;12.23;8.20;;;;;;;5.91;100.00;97610.28;5036635;28;20511;-81
2023/11/13 00:07:56;;;;;;;11.23;7.63;;;;;;;5.94;100.00;97607.50;5038712;28;20227;-82
2023/11/13 00:10:22;;;;;;;11.23;7.87;;;;;;;5.95;100.00;97617.06;5059225;28;20212;-81
2023/11/13 00:12:49;;;;;;;14.03;8.67;;;;;;;5.99;100.00;97613.31;5059305;28;20225;-81
2023/11/13 00:15:15;;;;;;;11.17;7.77;;;;;;;6.01;100.00;97608.81;5058321;28;20209;-83
2023/11/13 00:17:43;;;;;;;12.37;7.77;;;;;;;6.03;100.00;97601.69;5059547;28;20227;-81
2023/11/13 00:20:10;;;;;;;11.87;8.00;;;;;;;6.04;100.00;97592.88;5057769;28;20232;-83
2023/11/13 00:22:37;;;;;;;13.90;7.37;;;;;;;6.11;100.00;97588.97;5049565;28;20235;-83
2023/11/13 00:25:07;;;;;;;12.80;7.73;;;;;;;6.13;100.00;97579.25;5049241;28;20240;-82
2023/11/13 00:27:33;;;;;;;11.53;7.73;;;;;;;6.13;100.00;97573.13;5048542;28;20215;-82
2023/11/13 00:30:00;;;;;;;12.43;7.63;;;;;;;6.12;100.00;97561.78;5048964;28;20213;-82
2023/11/13 00:32:27;;;;;;;12.50;7.67;;;;;;;6.14;100.00;97564.31;5048813;28;20332;-82
2023/11/13 00:34:55;;;;;;;10.90;7.07;;;;;;;6.15;100.00;97566.00;5047876;28;20214;-82
2023/11/13 00:37:21;;;;;;;9.87;7.23;;;;;;;6.12;100.00;97564.41;5047092;28;20210;-81
2023/11/13 00:39:48;;;;;;;11.03;7.27;;;;;;;6.17;100.00;97572.03;5047537;28;20215;-81
2023/11/13 00:42:16;;;;;;;14.73;8.73;;;;;;;6.21;100.00;97578.75;5046124;28;20232;-82
2023/11/13 00:44:42;;;;;;;13.53;7.80;;;;;;;6.25;100.00;97580.25;5046749;28;20272;-82
2023/11/13 00:47:09;;;;;;;11.47;8.00;;;;;;;6.24;100.00;97579.41;5047047;28;20215;-82
2023/11/13 00:49:35;;;;;;;11.87;7.87;;;;;;;6.31;100.00;97553.66;5047077;28;20694;-82
2023/11/13 00:52:03;;;;;;;9.77;6.60;;;;;;;6.25;100.00;97557.50;5046664;28;20233;-82
2023/11/13 00:54:30;;;;;;;9.00;6.27;;;;;;;6.27;100.00;97558.25;5046776;28;20205;-83
2023/11/13 00:56:57;;;;;;;8.90;6.23;;;;;;;6.27;100.00;97553.00;5048056;28;20209;-82
2023/11/13 00:59:24;;;;;;;9.47;6.73;;;;;;;6.30;100.00;97552.78;5047585;28;20477;-82
2023/11/13 01:01:50;;;;;;;10.60;7.67;;;;;;;6.33;100.00;97555.25;5047902;28;20692;-82
2023/11/13 01:04:17;;;;;;;10.67;6.47;;;;;;;6.32;100.00;97556.19;5047876;28;20695;-82
2023/11/13 01:06:44;;;;;;;8.60;5.83;;;;;;;6.33;100.00;97552.63;5050218;28;20204;-82
2023/11/13 01:09:12;;;;;;;9.40;7.10;;;;;;;6.37;100.00;97567.25;5050040;28;20289;-81
2023/11/13 01:11:39;;;;;;;10.33;6.57;;;;;;;6.37;100.00;97567.25;5049858;28;20235;-81
2023/11/13 01:14:05;;;;;;;10.57;7.27;;;;;;;6.35;100.00;97561.22;5048228;28;20213;-82
2023/11/13 01:16:32;;;;;;;8.40;5.90;;;;;;;6.38;100.00;97561.06;5050413;28;20240;-82
2023/11/13 01:18:58;;;;;;;10.07;6.83;;;;;;;6.37;100.00;97556.75;5049391;28;20236;-81
2023/11/13 01:21:25;;;;;;;9.60;6.30;;;;;;;6.41;100.00;97552.97;5047675;28;20237;-81
2023/11/13 01:23:51;;;;;;;10.67;6.83;;;;;;;6.43;100.00;97558.16;5047751;28;20209;-81
2023/11/13 01:26:19;;;;;;;9.07;6.57;;;;;;;6.41;100.00;97560.03;5048987;28;20231;-81
2023/11/13 01:28:46;;;;;;;10.60;7.07;;;;;;;6.37;100.00;97548.88;5045935;28;20236;-82
2023/11/13 01:31:15;;;;;;;9.13;6.47;;;;;;;6.39;100.00;97541.75;5051257;28;20231;-82
2023/11/13 01:33:41;;;;;;;10.83;7.23;;;;;;;6.38;100.00;97545.31;5051062;28;20565;-83
2023/11/13 01:36:08;;;;;;;10.10;6.97;;;;;;;6.40;100.00;97527.69;5049974;28;20215;-83
2023/11/13 01:38:35;;;;;;;10.97;7.57;;;;;;;6.39;100.00;97523.38;5049861;28;20211;-82
2023/11/13 01:41:02;;;;;;;11.73;7.73;;;;;;;6.40;100.00;97511.13;5049750;28;20255;-81
2023/11/13 01:43:30;;;;;;;10.77;6.97;;;;;;;6.41;100.00;97508.38;5048896;28;20205;-81
2023/11/13 01:45:58;;;;;;;11.80;7.43;;;;;;;6.41;100.00;97503.13;5049428;28;20374;-82
2023/11/13 01:48:26;;;;;;;11.70;7.37;;;;;;;6.42;100.00;97494.31;5048350;28;20204;-81
2023/11/13 01:50:54;;;;;;;9.97;7.27;;;;;;;6.44;100.00;97496.84;5048069;28;20694;-81
2023/11/13 01:53:23;;;;;;;9.07;6.40;;;;;;;6.46;100.00;97498.44;5050977;28;20291;-79
2023/11/13 01:55:51;;;;;;;12.97;6.13;;;;;;;6.49;100.00;97510.53;5045274;28;20254;-80
2023/11/13 01:58:17;;;;;;;11.27;7.60;;;;;;;6.50;100.00;97510.44;5045197;28;20312;-82
2023/11/13 02:00:47;;;;;;;11.30;7.43;;;;;;;6.50;100.00;97502.56;5044777;28;20224;-82
2023/11/13 02:03:14;;;;;;;13.00;8.23;;;;;;;6.50;100.00;97497.31;5045146;28;20212;-83
2023/11/13 02:05:41;;;;;;;12.50;7.83;;;;;;;6.51;100.00;97500.75;5045541;28;20209;-82
2023/11/13 02:08:08;;;;;;;12.60;8.03;;;;;;;6.51;100.00;97499.00;5045566;28;20222;-83
2023/11/13 02:10:35;;;;;;;12.67;8.00;;;;;;;6.53;100.00;97499.72;5047592;28;20235;-81
2023/11/13 02:13:04;;;;;;;11.60;7.57;;;;;;;6.56;100.00;97507.41;5046807;28;20209;-81
2023/11/13 02:15:31;;;;;;;14.57;8.23;;;;;;;6.58;100.00;97494.19;5044778;28;20576;-81
2023/11/13 02:18:01;;;;;;;11.53;7.87;;;;;;;6.61;100.00;97501.88;5045807;28;20252;-82
2023/11/13 02:20:27;;;;;;;10.20;6.83;;;;;;;6.63;100.00;97494.72;5044952;28;20336;-83
2023/11/13 02:22:54;;;;;;;12.07;7.73;;;;;;;6.68;100.00;97483.00;5044597;28;20232;-82
2023/11/13 02:25:24;;;;;;;10.50;7.43;;;;;;;6.65;100.00;97464.81;5043404;28;20702;-81
2023/11/13 02:27:52;;;;;;;10.53;6.87;;;;;;;6.68;100.00;97458.53;5042354;28;20219;-82
2023/11/13 02:30:19;;;;;;;13.93;8.33;;;;;;;6.73;100.00;97462.53;5046190;28;20223;-81
2023/11/13 02:32:46;;;;;;;10.37;7.37;;;;;;;6.76;100.00;97467.59;5048441;28;20224;-82
2023/11/13 02:35:14;;;;;;;13.80;8.13;;;;;;;6.77;100.00;97445.66;5047890;28;20209;-81
2023/11/13 02:37:40;;;;;;;12.40;7.77;;;;;;;6.80;100.00;97442.84;5049428;28;20212;-82
2023/11/13 02:40:11;;;;;;;10.07;7.10;;;;;;;6.82;100.00;97451.44;5052681;28;20219;-82
2023/11/13 02:42:39;;;;;;;10.83;7.67;;;;;;;6.85;100.00;97466.16;5052760;28;20607;-82
2023/11/13 02:45:07;;;;;;;13.73;8.03;;;;;;;6.86;100.00;97458.19;5051378;28;20212;-82
2023/11/13 02:47:34;;;;;;;10.13;6.23;;;;;;;6.89;100.00;97455.34;5048775;28;20216;-82
2023/11/13 02:50:02;;;;;;;13.03;7.63;;;;;;;6.92;100.00;97439.41;5051362;28;20221;-83
2023/11/13 02:52:28;;;;;;;12.10;7.63;;;;;;;6.96;100.00;97426.91;5053664;28;20212;-82
2023/11/13 02:54:55;;;;;;;12.60;8.37;;;;;;;7.00;100.00;97425.75;5052091;28;20216;-80
2023/11/13 02:57:21;;;;;;;14.20;8.40;;;;;;;7.01;100.00;97425.66;5036525;28;20243;-82
2023/11/13 02:59:49;;;;;;;13.73;8.53;;;;;;;7.01;100.00;97423.03;5054630;28;20652;-82
2023/11/13 03:02:16;;;;;;;11.80;8.10;;;;;;;6.98;100.00;97425.88;5054245;28;20244;-82
2023/11/13 03:04:43;;;;;;;14.97;9.00;;;;;;;7.01;100.00;97435.34;5053898;28;20698;-83
2023/11/13 03:07:09;;;;;;;13.20;7.83;;;;;;;6.99;100.00;97432.81;5051248;28;20304;-82
2023/11/13 03:09:36;;;;;;;13.37;9.03;;;;;;;7.01;100.00;97435.34;5050105;28;20560;-82
2023/11/13 03:12:02;;;;;;;11.90;7.97;;;;;;;7.06;100.00;97438.47;5046231;28;20240;-82
2023/11/13 03:14:29;;;;;;;13.63;8.97;;;;;;;7.06;100.00;97439.34;5041983;28;20208;-82
2023/11/13 03:16:58;;;;;;;14.50;8.60;;;;;;;7.10;100.00;97446.09;5057065;28;20216;-81
2023/11/13 03:19:25;;;;;;;14.17;8.40;;;;;;;7.11;100.00;97458.28;5060121;28;20192;-81
2023/11/13 03:21:51;;;;;;;17.53;8.43;;;;;;;7.14;100.00;97457.22;5059786;28;20244;-82
2023/11/13 03:24:18;;;;;;;14.13;9.20;;;;;;;7.18;100.00;97457.75;5057950;28;20193;-83
2023/11/13 03:26:45;;;;;;;13.50;7.90;;;;;;;7.21;100.00;97464.56;5054732;28;20208;-83
2023/11/13 03:29:12;;;;;;;12.73;7.73;;;;;;;7.27;100.00;97458.91;5054274;28;20215;-82
2023/11/13 03:31:38;;;;;;;13.97;8.80;;;;;;;7.28;100.00;97460.63;5054827;28;20676;-81
2023/11/13 03:34:06;;;;;;;12.43;8.03;;;;;;;7.29;100.00;97457.06;5055092;28;20219;-81
2023/11/13 03:36:33;;;;;;;12.33;8.37;;;;;;;7.27;100.00;97453.66;5037126;28;20209;-82
2023/11/13 03:38:59;;;;;;;12.80;8.20;;;;;;;7.27;100.00;97458.91;5055063;28;20256;-83
2023/11/13 03:41:27;;;;;;;13.67;9.00;;;;;;;7.26;100.00;97457.25;5053951;28;20237;-82
2023/11/13 03:43:53;;;;;;;12.50;8.33;;;;;;;7.28;100.00;97463.25;5053801;28;20223;-81
2023/11/13 03:46:19;;;;;;;11.90;8.43;;;;;;;7.25;100.00;97458.19;5048058;28;20213;-83
2023/11/13 03:48:46;;;;;;;16.57;9.43;;;;;;;7.25;100.00;97466.06;5053049;28;20208;-82
2023/11/13 03:51:14;;;;;;;15.23;9.43;;;;;;;7.26;100.00;97467.75;5053403;28;20617;-83
2023/11/13 03:53:40;;;;;;;17.03;9.40;;;;;;;7.28;100.00;97465.88;5052503;28;20215;-83
2023/11/13 03:56:08;;;;;;;14.57;8.90;;;;;;;7.28;100.00;97470.28;5053563;28;20282;-82
2023/11/13 03:58:35;;;;;;;12.93;8.33;;;;;;;7.30;100.00;97464.00;5052674;28;20235;-83
2023/11/13 04:01:03;;;;;;;14.47;8.53;;;;;;;7.26;100.00;97467.75;5052581;28;20224;-83
2023/11/13 04:03:30;;;;;;;14.47;8.77;;;;;;;7.26;100.00;97457.25;5053005;28;20210;-82
2023/11/13 04:05:56;;;;;;;15.03;8.67;;;;;;;7.24;100.00;97464.41;5054542;28;20707;-81
2023/11/13 04:08:24;;;;;;;16.47;9.27;;;;;;;7.23;100.00;97466.16;5054174;28;20213;-81
2023/11/13 04:10:51;;;;;;;15.00;8.30;;;;;;;7.25;100.00;97479.22;5053423;28;20342;-83
2023/11/13 04:13:18;;;;;;;15.73;9.17;;;;;;;7.27;100.00;97490.44;5052570;28;20218;-81
2023/11/13 04:15:45;;;;;;;13.27;6.80;;;;;;;7.39;100.00;97487.00;5053270;28;20209;-83
2023/11/13 04:18:11;;;;;;;11.97;7.20;;;;;;;7.57;100.00;97478.75;5053404;28;20248;-83
2023/11/13 04:20:39;;;;;;;13.37;7.17;;;;;;;7.73;100.00;97473.28;5053895;28;20244;-81
2023/11/13 04:23:06;;;;;;;11.93;5.90;;;;;;;7.85;100.00;97488.25;5053021;28;20229;-82
2023/11/13 04:25:34;;;;;;;12.47;6.50;;;;;;;7.87;100.00;97496.84;5053422;28;20649;-82
2023/11/13 04:28:01;;;;;;;11.50;5.27;;;;;;;8.00;100.00;97497.69;5053219;28;20209;-83
2023/11/13 04:30:27;;;;;;;11.13;5.63;;;;;;;8.03;100.00;97503.59;5053405;28;20276;-83
2023/11/13 04:32:54;;;;;;;12.30;5.63;;;;;;;8.05;100.00;97511.38;5052418;28;20233;-82
2023/11/13 04:35:20;;;;;;;10.90;6.30;;;;;;;8.05;100.00;97498.22;5052436;28;20222;-83
2023/11/13 04:37:47;;;;;;;12.73;7.10;;;;;;;7.96;100.00;97498.88;5052351;28;20212;-82
2023/11/13 04:40:14;;;;;;;14.97;9.00;;;;;;;7.92;100.00;97497.38;5034021;28;20210;-82
2023/11/13 04:42:41;;;;;;;14.77;8.30;;;;;;;7.82;100.00;97489.28;5051104;28;20265;-83
2023/11/13 04:45:09;;;;;;;12.87;7.73;;;;;;;7.72;100.00;97482.97;5051467;28;20219;-83
2023/11/13 04:47:35;;;;;;;11.60;7.47;;;;;;;7.63;100.00;97488.00;5051694;28;20215;-83
2023/11/13 04:50:05;;;;;;;12.27;7.10;;;;;;;7.61;100.00;97495.16;5051049;28;20220;-83
2023/11/13 04:52:32;;;;;;;10.97;6.70;;;;;;;7.60;100.00;97491.69;5049763;28;20234;-83
2023/11/13 04:54:58;;;;;;;8.53;5.37;;;;;;;7.63;100.00;97482.75;5046441;28;20213;-83
2023/11/13 04:57:25;;;;;;;11.77;5.47;;;;;;;7.70;100.00;97484.00;5047030;28;20208;-83
2023/11/13 04:59:52;;;;;;;11.10;5.83;;;;;;;7.83;100.00;97484.88;5046050;28;20211;-83
2023/11/13 05:02:19;;;;;;;11.30;5.53;;;;;;;8.03;100.00;97494.88;5046785;28;20245;-83
2023/11/13 05:04:47;;;;;;;14.13;4.47;;;;;;;8.17;100.00;97487.69;5046543;28;20232;-81
2023/11/13 05:07:14;;;;;;;10.23;5.10;;;;;;;8.26;100.00;97491.53;5046685;28;20228;-81
2023/11/13 05:09:42;;;;;;;11.67;3.67;;;;;;;8.39;100.00;97494.97;5047316;28;20389;-82
2023/11/13 05:12:08;;;;;;;5.13;2.70;;;;;;;8.54;100.00;97491.22;5048014;28;20240;-83
2023/11/13 05:14:39;;;;;;;7.57;2.53;;;;;;;8.66;100.00;97491.22;5047603;28;20217;-82
2023/11/13 05:17:08;;;;;;;9.27;3.00;;;;;;;8.79;100.00;97488.53;5047328;28;20219;-83
2023/11/13 05:19:34;;;;;;;8.20;2.57;;;;;;;8.84;100.00;97483.75;5046912;28;20221;-83
2023/11/13 05:22:01;;;;;;;13.10;2.10;;;;;;;8.86;100.00;97484.50;5047163;28;20248;-83
2023/11/13 05:24:27;;;;;;;5.97;2.53;;;;;;;8.91;100.00;97488.50;5046676;28;20481;-83
2023/11/13 05:26:55;;;;;;;7.30;1.80;;;;;;;8.91;100.00;97492.91;5046961;28;20294;-82
2023/11/13 05:29:23;;;;;;;5.63;2.37;;;;;;;8.88;100.00;97486.06;5046251;28;20210;-82
2023/11/13 05:31:51;;;;;;;6.60;2.07;;;;;;;8.88;100.00;97482.59;5046543;28;20320;-81
2023/11/13 05:34:20;;;;;;;4.93;2.37;;;;;;;8.85;100.00;97483.66;5046090;28;20218;-82
2023/11/13 05:36:46;;;;;;;7.60;1.90;;;;;;;8.83;100.00;97479.47;5047047;28;20224;-82
2023/11/13 05:39:13;;;;;;;4.90;1.93;;;;;;;8.83;100.00;97484.72;5046773;28;20258;-81
2023/11/13 05:41:39;;;;;;;5.00;2.00;;;;;;;8.82;100.00;97486.50;5048715;28;20259;-82
2023/11/13 05:44:06;;;;;;;7.17;2.60;;;;;;;8.80;100.00;97495.47;5048752;28;20210;-81
2023/11/13 05:46:33;;;;;;;5.07;2.20;;;;;;;8.80;100.00;97500.75;5046325;28;20222;-83
2023/11/13 05:48:59;;;;;;;6.37;2.23;;;;;;;8.83;100.00;97501.38;5047537;28;20207;-82
2023/11/13 05:51:27;;;;;;;10.20;2.53;;;;;;;8.83;100.00;97501.38;5045658;28;20230;-82
2023/11/13 05:53:54;;;;;;;5.23;2.30;;;;;;;8.89;100.00;97500.09;5046518;28;20214;-82
2023/11/13 05:56:20;;;;;;;6.67;2.00;;;;;;;8.94;100.00;97495.34;5046095;28;20215;-83
2023/11/13 05:58:48;;;;;;;9.90;2.60;;;;;;;8.93;100.00;97501.56;5045936;28;20207;-82
2023/11/13 06:01:17;;;;;;;9.37;2.20;;;;;;;8.90;100.00;97504.41;5046326;28;20238;-82
2023/11/13 06:03:44;;;;;;;7.70;2.23;;;;;;;8.92;100.00;97505.13;5046363;28;20241;-81
2023/11/13 06:06:12;;;;;;;8.13;2.60;;;;;;;8.89;100.00;97500.09;5046728;28;20210;-82
2023/11/13 06:08:41;;;;;;;5.37;2.23;;;;;;;8.87;100.00;97507.28;5050253;28;20227;-82
2023/11/13 06:11:07;;;;;;;9.80;2.10;;;;;;;8.82;100.00;97504.13;5046556;28;20231;-82
2023/11/13 06:13:35;;;;;;;7.10;2.33;;;;;;;8.82;100.00;97509.41;5046477;28;20275;-82
2023/11/13 06:16:02;;;;;;;9.13;2.20;;;;;;;8.82;100.00;97504.94;5047735;28;20219;-83
2023/11/13 06:18:29;;;;;;;10.93;2.70;;;;;;;8.83;100.00;97506.66;5048559;28;20210;-83
2023/11/13 06:20:56;;;;;;;8.03;2.27;;;;;;;8.87;100.00;97512.53;5044650;28;20241;-81
2023/11/13 06:23:24;;;;;;;7.63;2.37;;;;;;;8.96;100.00;97517.13;5040450;28;20231;-81
2023/11/13 06:25:52;;;;;;;7.87;2.83;;;;;;;9.00;100.00;97519.44;5040967;28;20229;-82
2023/11/13 06:28:18;;;;;;;12.97;3.20;;;;;;;9.04;100.00;97530.59;5057447;28;20194;-81
2023/11/13 06:30:45;;;;;;;12.40;2.57;;;;;;;9.10;100.00;97535.41;5039813;28;20261;-82
2023/11/13 06:33:12;;;;;;;11.07;2.53;;;;;;;9.15;100.00;97528.03;5057028;28;20208;-82
2023/11/13 06:35:39;;;;;;;14.47;2.70;;;;;;;9.20;100.00;97537.28;5057053;28;20195;-82
2023/11/13 06:38:07;;;;;;;9.67;2.83;;;;;;;9.20;100.00;97545.22;5056597;28;20199;-82
2023/11/13 06:40:34;;;;;;;9.87;2.83;;;;;;;9.17;100.00;97536.69;5049011;28;20215;-83
2023/11/13 06:43:02;;;;;;;10.23;2.97;;;;;;;9.16;100.00;97533.19;5046016;28;20253;-82
2023/11/13 06:45:29;;;;;;;6.87;2.30;;;;;;;9.14;100.00;97529.84;5049851;28;20212;-82
2023/11/13 06:47:55;;;;;;;7.03;2.77;;;;;;;9.13;100.00;97529.94;5051026;28;20216;-82
2023/11/13 06:50:23;;;;;;;4.73;2.30;;;;;;;9.14;100.00;97526.34;5050158;28;20347;-82
2023/11/13 06:52:50;;;;;;;4.37;1.87;;;;;;;9.13;100.00;97527.31;5050770;28;20239;-82
2023/11/13 06:55:17;;;;;;;6.70;2.03;;;;;;;9.14;100.00;97521.06;5050202;28;20290;-82
2023/11/13 06:57:44;;;;;;;4.63;1.87;;;;;;;9.12;100.00;97525.63;5050815;28;20285;-83
2023/11/13 07:00:13;;;;;;;5.87;1.90;;;;;;;9.12;100.00;97539.63;5050991;28;20300;-81
2023/11/13 07:02:43;;;;;;;6.17;1.50;;;;;;;9.11;100.00;97539.75;5047094;28;20233;-80
2023/11/13 07:05:10;;;;;;;6.33;2.00;;;;;;;9.10;100.00;97541.53;5042457;28;20246;-80
2023/11/13 07:07:37;;;;;;;5.13;1.90;;;;;;;9.12;100.00;97552.00;5037804;28;20306;-81
2023/11/13 07:10:04;;;;;;;6.17;2.00;;;;;;;9.12;100.00;97554.63;5055602;28;20192;-81
2023/11/13 07:12:31;;;;;;;5.50;2.27;;;;;;;9.12;100.00;97565.16;5055742;28;20225;-81
2023/11/13 07:14:58;;;;;;;4.23;1.90;;;;;;;9.13;100.00;97566.84;5055698;28;20188;-81
2023/11/13 07:17:26;;;;;;;3.60;2.20;;;;;;;9.14;100.00;97560.63;5054220;28;20208;-81
2023/11/13 07:19:52;;;;;;;4.17;2.20;;;;;;;9.16;100.00;97566.59;5052155;28;20304;-80
2023/11/13 07:22:19;;;;;;;5.83;2.80;;;;;;;9.17;100.00;97569.13;5051437;28;20269;-80
2023/11/13 07:24:46;;;;;;;3.70;2.03;;;;;;;9.19;100.00;97563.78;5056694;28;20319;-81
2023/11/13 07:27:12;;;;;;;5.63;2.30;;;;;;;9.23;100.00;97573.16;5056253;28;20217;-81
2023/11/13 07:29:41;;;;;;;4.53;1.97;;;;;;;9.25;100.00;97565.97;5054351;28;20207;-79
2023/11/13 07:32:08;;;;;;;7.57;2.40;;;;;;;9.26;100.00;97572.91;5045328;28;20238;-77
2023/11/13 07:34:35;;;;;;;4.63;2.00;;;;;;;9.29;100.00;97573.53;5037341;28;20209;-77
2023/11/13 07:37:03;;;;;;;4.93;2.17;;;;;;;9.30;100.00;97577.03;5038797;28;20220;-80
2023/11/13 07:39:31;;;;;;;7.70;2.17;;;;;;;9.31;100.00;97576.88;5051381;28;20222;-80
2023/11/13 07:41:58;;;;;;;5.10;2.13;;;;;;;9.31;100.00;97565.50;5054444;28;20231;-80
2023/11/13 07:44:24;;;;;;;4.33;1.97;;;;;;;9.29;100.00;97570.03;5056196;28;20270;-81
2023/11/13 07:46:52;;;;;;;6.63;2.33;;;;;;;9.30;100.00;97559.38;5054483;28;20193;-80
2023/11/13 07:49:18;;;;;;;8.27;3.93;;;;;;;9.32;100.00;97556.63;5054993;28;20217;-80
2023/11/13 07:51:47;;;;;;;8.10;4.13;;;;;;;9.33;100.00;97558.31;5055966;28;20232;-81
2023/11/13 07:54:13;;;;;;;9.70;4.63;;;;;;;9.35;100.00;97569.59;5056000;28;20272;-80
2023/11/13 07:56:40;;;;;;;9.90;5.77;;;;;;;9.35;100.00;97572.22;5052083;28;20213;-79
2023/11/13 07:59:07;;;;;;;10.20;5.27;;;;;;;9.36;100.00;97568.66;5051679;28;20207;-80
2023/11/13 08:01:34;;;;;;;10.80;4.80;;;;;;;9.36;100.00;97574.75;5049947;28;20232;-81
2023/11/13 08:04:01;;;;;;;8.23;3.80;;;;;;;9.44;100.00;97577.69;5051265;28;20238;-81
2023/11/13 08:06:28;;;;;;;9.07;3.63;;;;;;;9.38;100.00;97575.50;5052806;28;20279;-80
2023/11/13 08:08:56;;;;;;;7.10;3.70;;;;;;;9.40;100.00;97572.72;5051696;28;20227;-82
2023/11/13 08:11:23;;;;;;;7.13;3.23;;;;;;;9.39;100.00;97565.78;5070464;28;20227;-81
2023/11/13 08:13:49;;;;;;;8.60;3.50;;;;;;;9.40;100.00;97578.00;5072786;28;20203;-81
2023/11/13 08:16:18;;;;;;;5.27;2.90;;;;;;;9.42;100.00;97570.84;5065353;28;20213;-79
2023/11/13 08:18:45;;;;;;;8.10;3.10;;;;;;;9.43;100.00;97583.91;5063579;28;20204;-80
2023/11/13 08:21:13;;;;;;;6.63;2.70;;;;;;;9.44;100.00;97584.75;5066870;28;20670;-80
2023/11/13 08:23:40;;;;;;;5.80;3.03;;;;;;;9.44;100.00;97588.25;5068312;28;20266;-80
2023/11/13 08:26:10;;;;;;;8.63;3.17;;;;;;;9.45;100.00;97589.06;5070701;28;20276;-80
2023/11/13 08:28:37;;;;;;;8.70;3.20;;;;;;;9.43;100.00;97583.06;5062280;28;20267;-80
2023/11/13 08:31:05;;;;;;;7.17;2.90;;;;;;;9.41;100.00;97584.97;5050068;28;20689;-81
2023/11/13 08:33:32;;;;;;;4.60;2.63;;;;;;;9.40;100.00;97580.66;5048411;28;20268;-79
2023/11/13 08:35:59;;;;;;;6.33;3.77;;;;;;;9.40;100.00;97580.66;5050596;28;20306;-81
2023/11/13 08:38:26;;;;;;;13.23;4.73;;;;;;;9.39;100.00;97579.81;5049883;28;20212;-80
2023/11/13 08:40:55;;;;;;;15.10;6.73;;;;;;;9.51;100.00;97562.25;5050921;28;20232;-82
2023/11/13 08:43:25;;;;;;;17.03;7.07;;;;;;;9.42;100.00;97584.03;5049976;28;20716;-82
2023/11/13 08:45:53;;;;;;;12.40;6.10;;;;;;;9.42;100.00;97555.03;5052121;28;20223;-81
2023/11/13 08:48:21;;;;;;;9.70;6.00;;;;;;;9.46;100.00;97544.13;5053439;28;20217;-80
2023/11/13 08:50:48;;;;;;;13.40;6.27;;;;;;;9.43;100.00;97578.63;5053290;28;20217;-81
2023/11/13 08:53:15;;;;;;;13.37;5.90;;;;;;;9.43;100.00;97581.25;5071878;28;20201;-80
2023/11/13 08:55:42;;;;;;;13.97;5.53;;;;;;;9.52;100.00;97550.72;5063430;28;20257;-77
2023/11/13 08:58:09;;;;;;;12.00;6.17;;;;;;;9.60;100.00;97525.47;5063987;28;20930;-80
2023/11/13 09:00:44;;;;;;;13.07;5.70;;;;;;;9.55;100.00;97542.59;5044093;28;20553;-80
2023/11/13 09:03:11;;;;;;;13.10;6.00;;;;;;;9.55;100.00;97542.59;5044654;28;20298;-80
2023/11/13 09:05:39;;;;;;;12.17;5.37;;;;;;;9.53;100.00;97539.22;5046372;28;20243;-80
2023/11/13 09:08:08;;;;;;;10.83;5.80;;;;;;;9.53;100.00;97510.19;5053207;28;20267;-80
2023/11/13 09:10:35;;;;;;;10.10;5.90;;;;;;;9.55;100.00;97513.59;5053321;28;20280;-81
2023/11/13 09:13:05;;;;;;;9.43;5.20;;;;;;;9.55;100.00;97514.41;5052797;28;20265;-80
2023/11/13 09:15:33;;;;;;;10.23;5.20;;;;;;;9.61;100.00;97506.03;5052868;28;20223;-81
2023/11/13 09:18:05;;;;;;;10.57;5.30;;;;;;;9.62;100.00;97504.25;5050224;28;20244;-81
2023/11/13 09:20:32;;;;;;;10.87;5.00;;;;;;;9.63;100.00;97509.44;5043243;28;20206;-81
2023/11/13 09:23:02;;;;;;;12.13;4.70;;;;;;;9.63;100.00;97506.78;5027590;28;20238;-80
2023/11/13 09:25:31;;;;;;;12.30;4.50;;;;;;;9.71;100.00;97495.63;5036458;28;20218;-80
2023/11/13 09:27:57;;;;;;;10.10;4.30;;;;;;;9.68;100.00;97490.59;5043087;28;20216;-79
2023/11/13 09:30:25;;;;;;;7.07;3.83;;;;;;;9.68;100.00;97495.88;5041095;28;20211;-81
2023/11/13 09:32:53;;;;;;;12.80;3.97;;;;;;;9.69;100.00;97493.13;5039493;28;20259;-79
2023/11/13 09:35:22;;;;;;;8.17;3.30;;;;;;;9.72;100.00;97492.06;5039645;28;20212;-79
2023/11/13 09:37:50;;;;;;;7.87;3.70;;;;;;;9.72;100.00;97498.16;5052600;28;20213;-79
2023/11/13 09:40:18;;;;;;;7.13;3.60;;;;;;;9.71;100.00;97496.47;5043367;28;20207;-80
2023/11/13 09:42:48;;;;;;;6.60;3.57;;;;;;;9.72;100.00;97502.63;5039883;28;20231;-82
2023/11/13 09:45:15;;;;;;;6.87;3.43;;;;;;;9.72;100.00;97492.06;5038833;28;20263;-82
2023/11/13 09:47:45;;;;;;;10.03;4.03;;;;;;;9.73;100.00;97489.28;5040190;28;20264;-82
2023/11/13 09:50:16;;;;;;;10.37;3.90;;;;;;;9.78;100.00;97475.75;5040698;28;20216;-82
2023/11/13 09:52:47;;;;;;;7.77;3.43;;;;;;;9.82;100.00;97477.19;5043053;28;20228;-80
2023/11/13 09:55:18;;;;;;;8.80;3.40;;;;;;;9.86;100.00;97478.66;5046034;28;20235;-82
2023/11/13 09:57:45;;;;;;;5.03;2.93;;;;;;;9.86;100.00;97460.16;5039168;28;20221;-82
2023/11/13 10:00:16;;;;;;;8.60;2.77;;;;;;;9.87;100.00;97448.66;5039924;28;20215;-82
2023/11/13 10:02:46;;;;;;;6.40;3.20;;;;;;;9.90;100.00;97448.44;5042624;28;20229;-81
2023/11/13 10:05:13;;;;;;;5.03;3.00;;;;;;;9.93;100.00;97437.63;5049310;28;20215;-81
2023/11/13 10:07:47;;;;;;;6.27;2.73;;;;;;;9.93;100.00;97451.69;5051410;28;20238;-82
2023/11/13 10:10:20;;;;;;;8.33;3.03;;;;;;;10.00;100.00;97449.38;5050884;28;20244;-81
2023/11/13 10:12:47;;;;;;;5.93;2.70;;;;;;;9.99;100.00;97448.56;5051041;28;20235;-82
2023/11/13 10:15:13;;;;;;;7.27;2.73;;;;;;;10.00;100.00;97441.47;5051229;28;20209;-82
2023/11/13 10:17:46;;;;;;;9.77;2.43;;;;;;;10.01;100.00;97453.69;5050510;28;20770;-81
2023/11/13 10:20:17;;;;;;;7.27;2.20;;;;;;;10.04;100.00;97448.22;5051522;28;20268;-80
2023/11/13 10:22:44;;;;;;;8.00;2.90;;;;;;;10.08;100.00;97441.72;5050589;28;20248;-81
2023/11/13 10:25:12;;;;;;;6.67;2.40;;;;;;;10.11;100.00;97436.22;5050394;28;20228;-80
2023/11/13 10:27:44;;;;;;;4.67;3.00;;;;;;;10.15;100.00;97438.50;5051641;28;20269;-79
2023/11/13 10:30:12;;;;;;;6.20;2.87;;;;;;;10.15;100.00;97435.03;5051365;28;20207;-81
2023/11/13 10:32:39;;;;;;;7.43;3.20;;;;;;;10.15;100.00;97422.66;5049652;28;20286;-80
2023/11/13 10:35:09;;;;;;;6.77;2.87;;;;;;;10.17;100.00;97425.19;5047577;28;20207;-80
2023/11/13 10:37:37;;;;;;;4.07;2.70;;;;;;;10.17;100.00;97426.03;5050043;28;20296;-81
2023/11/13 10:40:07;;;;;;;9.10;3.33;;;;;;;10.19;100.00;97412.69;5034381;28;20672;-80
2023/11/13 10:42:34;;;;;;;8.67;2.67;;;;;;;10.23;100.00;97414.13;5042993;28;20225;-79
2023/11/13 10:45:01;;;;;;;5.03;2.63;;;;;;;10.26;100.00;97409.44;5043280;28;20229;-81
2023/11/13 10:47:30;;;;;;;6.77;2.77;;;;;;;10.35;100.00;97398.13;5047005;28;20715;-80
2023/11/13 10:50:01;;;;;;;4.67;2.60;;;;;;;10.39;100.00;97389.03;5043352;28;20215;-79
2023/11/13 10:52:28;;;;;;;7.27;2.77;;;;;;;10.43;100.00;97376.41;5039715;28;20578;-79
2023/11/13 10:54:58;;;;;;;4.70;2.60;;;;;;;10.49;100.00;97373.28;5045324;28;20212;-80
2023/11/13 10:57:26;;;;;;;8.87;2.87;;;;;;;10.57;100.00;97376.13;5048111;28;20206;-80
2023/11/13 10:59:55;;;;;;;3.83;2.43;;;;;;;10.62;100.00;97371.31;5040569;28;20208;-80
2023/11/13 11:02:26;;;;;;;4.23;2.83;;;;;;;10.69;100.00;97364.56;5037863;28;20232;-81
2023/11/13 11:04:56;;;;;;;4.77;2.93;;;;;;;10.75;100.00;97369.34;5039568;28;20232;-81
2023/11/13 11:07:29;;;;;;;7.70;3.03;;;;;;;10.82;100.00;97366.06;5054799;28;20735;-79
2023/11/13 11:10:00;;;;;;;5.40;2.60;;;;;;;10.89;100.00;97369.06;5052267;28;20220;-79
2023/11/13 11:12:33;;;;;;;4.03;2.00;;;;;;;11.01;100.00;97374.16;5058384;28;20214;-81
2023/11/13 11:15:26;;;;;;;4.53;1.80;;;;;;;11.20;100.00;97365.56;5048172;28;20192;-81
2023/11/13 11:17:59;;;;;;;5.93;1.93;;;;;;;11.30;100.00;97355.84;5045177;28;20244;-83
2023/11/13 11:20:35;;;;;;;3.03;1.73;;;;;;;11.40;100.00;97354.13;5044063;28;20214;-80
2023/11/13 11:23:04;;;;;;;4.83;2.20;;;;;;;11.44;100.00;97359.03;5041018;28;20212;-81
2023/11/13 11:25:46;;;;;;;3.63;1.80;;;;;;;11.47;100.00;97357.94;5041149;28;20238;-84
2023/11/13 11:28:48;;;;;;;4.17;1.90;;;;;;;11.52;100.00;97361.03;5042589;28;20215;-81
2023/11/13 11:31:47;;;;;;;4.23;2.23;;;;;;;11.56;100.00;97365.09;5041531;28;20239;-81